CYQBCYRQ

Guest
Details From CYQB - Quebec Jean Lesage Intl
To CYRQ - TROIS RIVIERES
Flight Number -
Tags generated
Created
Modified
Stats Distance 59 nm / 110 km
Max Altitude 5,000 ft / 1,524 m
Waypoints 4
Social Downloads 6
Likes 0
Share VATSIM

Download

Looking for another format? Having issues loading an existing format? Contact us
Advertisement - Login to hide

Notes

Basic altitude profile: - Ascent Rate: 2500ft/min - Ascent Speed: 250kts - Cruise Altitude: 35000ft - Cruise Speed: 420kts - Descent Rate: 1500ft/min - Descent Speed: 250kts Options: - Use NATs: no - Use PACOTS: no - Use low airways: yes - Use high airways: no

Route

CYQB YQB V316 PESAC CYRQ

ID Type Via Altitude Latitude Longitude Leg Dist Tot Dist Heading (true) Name
O CYQB APT - 0 ft / 0 m 46.78946˚ -71.39276˚ - 0 nm - Quebec Jean Lesage Intl
YQB VOR - 3,800 ft / 1,158 m 46.70531˚ -71.62625˚ 10 nm 10 nm 242° / 242° QUEBEC VORTAC
PESAC FIX V316 (AWY-LO) 5,000 ft / 1,524 m 46.54889˚ -72.18694˚ 24 nm 35 nm 248° / 248° -
O CYRQ APT - 0 ft / 0 m 46.35274˚ -72.67944˚ 23 nm 59 nm 240° / 240° TROIS RIVIERES

Altitude Profile

Advertisement - Login to hide

CYQB

Details ICAO CYQB (YQB)
Name Quebec Jean Lesage Intl
Region Canada
Timezone America/Montreal (UTC-4.0)
Stats Elevation 244 ft / 74 m (AMSL)
Location 46.789458° -71.392764°
Runways 2
Magnetic Variation 15.795° W

METAR

CYQB 241000Z VRB02KT 25SM FEW100 06/M02 A3008 RMK AC1 AC TR SLP191

Decode

TAF

TAF CYQB 240539Z 2406/2506 34004KT P6SM SCT120 BECMG 2407/2409 VRB03KT FM241500 20008KT P6SM SCT120 FM241700 24012G22KT P6SM BKN100 FM250200 24012KT P6SM FEW100 RMK NXT FCST BY 241200Z

Decode

Departure Runways

ID Width Length Bearing (true) Bearing (mag) Surface Threshold Offset Overrun Length
06 150 ft / 46 m 9,020 ft / 2,749 m 44.00° 59.79° Asphalt 0 ft / 0 m 0 ft / 0 m
12 150 ft / 46 m 5,678 ft / 1,731 m 97.58° 113.37° Asphalt 0 ft / 0 m 0 ft / 0 m
24 150 ft / 46 m 9,020 ft / 2,749 m 224.02° 239.81° Asphalt 0 ft / 0 m 0 ft / 0 m
30 150 ft / 46 m 5,678 ft / 1,731 m 277.60° 293.39° Asphalt 0 ft / 0 m 0 ft / 0 m

CYRQ

Details ICAO CYRQ (YRQ)
Name TROIS RIVIERES
Region Canada
Timezone America/Montreal (UTC-4.0)
Stats Elevation 199 ft / 61 m (AMSL)
Location 46.352741° -72.679441°
Runways 1
Magnetic Variation 15.085° W

METAR

CYRQ 241000Z AUTO 36004KT 9SM CLR 06/M01 A3010 RMK SLP196

Decode

TAF

TAF CYRQ 240740Z 2408/2420 VRB03KT P6SM FEW110 TEMPO 2408/2414 BKN110 BECMG 2410/2412 33008KT FM241400 33008KT P6SM SCT130 BECMG 2414/2416 29010KT BECMG 2419/2420 22012G22KT RMK FCST BASED ON AUTO OBS. NXT FCST BY 241400Z

Decode

Destination Runways

ID Width Length Bearing (true) Bearing (mag) Surface Threshold Offset Overrun Length
05 150 ft / 46 m 6,001 ft / 1,829 m 31.33° 46.42° Asphalt 0 ft / 0 m 300 ft / 91 m
23 150 ft / 46 m 6,001 ft / 1,829 m 211.34° 226.43° Asphalt 0 ft / 0 m 300 ft / 91 m

Popular Alternatives